Time;durP1;ratioP1;P1;durP2;ratioP2;P2;SDS_P1;SDS_P2;PMS_P1;PMS_P2;Temp;Humidity;BMP_temperature;BMP_pressure;BME280_temperature;BME280_humidity;BME280_pressure;Samples;Min_cycle;Max_cycle;Signal;HPM_P1;HPM_P2
2024/03/18 00:01:24;;;;;;;;;25.25;18.75;;;;;11.42;77.32;101221.88;146604;564;47020;-73
2024/03/18 00:04:31;;;;;;;;;23.00;21.00;;;;;11.39;77.50;101221.69;146629;770;45031;-73
2024/03/18 00:07:37;;;;;;;;;22.00;21.00;;;;;11.40;77.03;101212.19;146634;600;46008;-73
2024/03/18 00:10:42;;;;;;;;;24.25;21.75;;;;;11.39;76.85;101208.72;146630;569;45909;-71
2024/03/18 00:13:44;;;;;;;;;21.75;20.25;;;;;11.41;76.87;101204.50;146633;596;46008;-70
2024/03/18 00:16:38;;;;;;;;;23.50;18.75;;;;;11.42;76.84;101208.88;146630;661;45018;-70
2024/03/18 00:19:31;;;;;;;;;24.75;22.25;;;;;11.44;77.04;101203.78;146631;584;47008;-70
2024/03/18 00:22:26;;;;;;;;;32.75;28.00;;;;;11.50;77.08;101196.34;146628;661;46012;-72
2024/03/18 00:25:29;;;;;;;;;32.00;22.25;;;;;11.54;76.81;101199.19;146631;619;46008;-71
2024/03/18 00:28:28;;;;;;;;;38.25;32.25;;;;;11.57;76.65;101194.16;146629;578;45029;-70
2024/03/18 00:31:26;;;;;;;;;27.75;25.50;;;;;11.59;76.87;101202.03;146623;569;45021;-70
2024/03/18 00:34:28;;;;;;;;;31.00;26.00;;;;;11.57;76.84;101204.53;146629;585;46016;-69
2024/03/18 00:37:35;;;;;;;;;31.00;26.00;;;;;11.55;76.80;101202.66;146630;565;47020;-72
2024/03/18 00:40:33;;;;;;;;;40.00;34.50;;;;;11.56;76.93;101200.16;146630;817;47010;-71
2024/03/18 00:43:33;;;;;;;;;28.25;24.75;;;;;11.56;76.80;101197.56;146632;579;46008;-72
2024/03/18 00:46:37;;;;;;;;;31.25;26.25;;;;;11.53;76.55;101197.41;146631;604;45017;-73
2024/03/18 00:49:41;;;;;;;;;29.25;27.50;;;;;11.49;76.25;101192.81;146626;608;45020;-72
2024/03/18 00:52:36;;;;;;;;;27.75;22.25;;;;;11.43;76.79;101200.31;146627;701;45017;-72
2024/03/18 00:55:41;;;;;;;;;25.50;22.25;;;;;11.33;76.73;101193.69;146630;577;46008;-72
2024/03/18 00:58:38;;;;;;;;;29.25;22.00;;;;;10.41;76.56;101044.97;146629;634;46908;-73
2024/03/18 01:01:40;;;;;;;;;22.00;20.50;;;;;11.20;77.24;101186.03;146628;604;45021;-75
2024/03/18 01:04:48;;;;;;;;;24.50;23.50;;;;;11.16;76.71;101184.09;146631;575;46016;-75
2024/03/18 01:07:53;;;;;;;;;21.25;16.00;;;;;11.10;77.29;101186.34;146632;653;45008;-74
2024/03/18 01:10:49;;;;;;;;;21.25;19.75;;;;;11.04;77.37;101173.00;146629;580;46010;-73
2024/03/18 01:13:50;;;;;;;;;27.75;19.25;;;;;10.98;77.65;101168.38;146634;605;45008;-69
2024/03/18 01:16:47;;;;;;;;;23.00;18.25;;;;;10.91;78.00;101166.25;146631;576;45912;-69
2024/03/18 01:19:48;;;;;;;;;26.00;20.50;;;;;10.87;77.98;101164.25;146633;599;45008;-70
2024/03/18 01:22:45;;;;;;;;;26.50;20.00;;;;;10.81;78.54;101158.72;146627;635;46912;-70
2024/03/18 01:25:47;;;;;;;;;19.50;17.75;;;;;10.74;78.13;101152.28;146630;586;45020;-77
2024/03/18 01:28:41;;;;;;;;;22.00;21.00;;;;;10.73;78.79;101150.50;146624;609;48911;-73
2024/03/18 01:31:39;;;;;;;;;14.75;14.25;;;;;10.67;78.42;101146.66;146629;579;45008;-73
2024/03/18 01:34:35;;;;;;;;;20.75;19.75;;;;;10.59;78.46;101147.12;146628;563;46016;-74
2024/03/18 01:37:31;;;;;;;;;22.75;19.50;;;;;10.54;78.06;101150.25;146633;571;45021;-74
2024/03/18 01:40:24;;;;;;;;;20.75;18.75;;;;;10.52;78.33;101155.34;146627;572;46909;-74
2024/03/18 01:43:17;;;;;;;;;20.00;17.50;;;;;10.49;78.59;101154.28;146633;619;45020;-73
2024/03/18 01:46:28;;;;;;;;;19.25;18.00;;;;;10.51;77.58;101157.84;146629;601;46010;-74
2024/03/18 01:50:04;;;;;;;;;24.00;22.75;;;;;10.53;78.43;101159.75;146635;569;44020;-74
2024/03/18 01:52:57;;;;;;;;;24.50;20.75;;;;;10.51;78.56;101163.03;146630;569;45912;-74
2024/03/18 01:56:15;;;;;;;;;;;;;;;;;;;;;
2024/03/18 01:59:14;;;;;;;;;22.75;21.25;;;;;10.50;78.38;101169.00;146629;571;45910;-75
2024/03/18 02:02:16;;;;;;;;;22.00;22.00;;;;;10.52;78.85;101167.41;146620;634;47008;-74
2024/03/18 02:05:14;;;;;;;;;23.50;20.25;;;;;10.52;78.70;101170.00;146607;596;46912;-75
2024/03/18 02:08:16;;;;;;;;;25.25;21.75;;;;;10.50;78.23;101158.63;146611;575;46021;-75
2024/03/18 02:11:18;;;;;;;;;25.75;24.00;;;;;10.46;78.17;101154.09;146608;570;46016;-74
2024/03/18 02:14:21;;;;;;;;;25.75;22.50;;;;;10.42;77.97;101165.09;146611;578;46010;-74
2024/03/18 02:17:20;;;;;;;;;23.50;20.00;;;;;10.39;78.40;101166.69;146600;620;48010;-73
2024/03/18 02:20:20;;;;;;;;;26.25;24.75;;;;;10.33;78.30;101163.75;146613;613;46020;-74
2024/03/18 02:23:14;;;;;;;;;26.00;21.00;;;;;10.31;78.71;101162.78;146608;626;47010;-73
2024/03/18 02:26:19;;;;;;;;;24.50;22.50;;;;;10.27;78.30;101172.84;146606;604;47008;-74
2024/03/18 02:29:19;;;;;;;;;24.50;22.25;;;;;10.20;78.99;101158.59;146603;618;47017;-73
2024/03/18 02:32:14;;;;;;;;;24.00;21.00;;;;;10.17;79.03;101173.97;146604;614;46008;-76
2024/03/18 02:35:20;;;;;;;;;30.00;24.75;;;;;10.20;78.90;101163.78;146606;576;47010;-77
2024/03/18 02:38:23;;;;;;;;;25.00;23.25;;;;;10.21;79.14;101162.97;146609;576;46021;-76
2024/03/18 02:41:28;;;;;;;;;24.50;21.25;;;;;10.18;78.98;101158.50;146609;584;46909;-75
2024/03/18 02:44:25;;;;;;;;;22.50;21.50;;;;;10.11;79.11;101153.75;146612;589;46021;-77
2024/03/18 02:47:27;;;;;;;;;25.00;20.25;;;;;10.10;78.86;101164.06;146607;612;46029;-75
2024/03/18 02:50:28;;;;;;;;;23.75;21.25;;;;;10.09;79.65;101157.97;146612;585;46008;-72
2024/03/18 02:53:40;;;;;;;;;20.25;19.25;;;;;10.05;79.08;101156.00;146604;612;47012;-72
2024/03/18 02:56:39;;;;;;;;;23.00;20.25;;;;;10.03;79.04;101167.97;146607;583;47008;-71
2024/03/18 02:59:32;;;;;;;;;27.75;22.75;;;;;10.02;79.83;101158.38;146606;587;47010;-69
2024/03/18 03:02:28;;;;;;;;;21.75;19.00;;;;;10.02;79.60;101173.94;146605;585;46008;-71
2024/03/18 03:05:32;;;;;;;;;21.25;19.50;;;;;10.07;79.70;101156.97;146606;595;46017;-71
2024/03/18 03:08:26;;;;;;;;;25.50;24.00;;;;;10.13;80.02;101159.94;146610;736;46020;-70
2024/03/18 03:11:26;;;;;;;;;28.00;24.25;;;;;10.15;80.13;101150.53;146610;566;46010;-70
2024/03/18 03:14:26;;;;;;;;;24.25;22.00;;;;;10.16;79.89;101165.31;146612;573;46021;-73
2024/03/18 03:17:28;;;;;;;;;26.25;21.25;;;;;10.16;80.51;101165.31;146609;597;46016;-71
2024/03/18 03:20:35;;;;;;;;;23.00;21.50;;;;;10.13;80.10;101156.47;146612;666;46020;-70
2024/03/18 03:23:31;;;;;;;;;21.75;19.50;;;;;10.11;79.99;101164.12;146601;608;47010;-72
2024/03/18 03:26:29;;;;;;;;;25.50;24.50;;;;;10.08;79.95;101165.66;146610;616;46020;-71
2024/03/18 03:29:26;;;;;;;;;18.50;18.25;;;;;10.07;79.39;101158.69;146604;576;46016;-71
2024/03/18 03:32:23;;;;;;;;;21.25;19.25;;;;;10.07;79.62;101153.50;146606;686;46020;-71
2024/03/18 03:35:24;;;;;;;;;17.50;15.50;;;;;10.14;80.00;101158.25;146606;685;47041;-70
2024/03/18 03:38:30;;;;;;;;;20.25;17.00;;;;;10.21;80.54;101164.69;146610;619;46020;-67
2024/03/18 03:41:32;;;;;;;;;24.50;20.25;;;;;10.22;80.22;101163.88;146606;670;46016;-68
2024/03/18 03:44:35;;;;;;;;;27.25;23.00;;;;;10.16;79.87;101167.91;146608;579;47008;-69
2024/03/18 03:47:33;;;;;;;;;17.50;17.00;;;;;10.06;79.97;101162.06;146605;563;47010;-68
2024/03/18 03:50:32;;;;;;;;;26.00;20.00;;;;;9.98;81.29;101160.72;146611;647;46021;-68
2024/03/18 03:53:37;;;;;;;;;16.75;13.75;;;;;9.87;80.51;101160.94;146607;683;46016;-69
2024/03/18 03:56:32;;;;;;;;;17.25;16.00;;;;;9.87;81.02;101162.66;146612;626;46025;-68
2024/03/18 03:59:28;;;;;;;;;23.50;19.75;;;;;9.87;81.45;101157.47;146609;595;46016;-68
2024/03/18 04:02:26;;;;;;;;;19.75;16.25;;;;;9.90;80.70;101165.41;146602;583;46020;-69
2024/03/18 04:05:26;;;;;;;;;21.50;16.75;;;;;9.86;81.38;101159.16;146608;599;46011;-68
2024/03/18 04:08:28;;;;;;;;;22.50;17.00;;;;;9.88;81.40;101161.88;146609;598;46020;-68
2024/03/18 04:11:43;;;;;;;;;18.25;15.25;;;;;7.97;80.47;100822.41;146608;570;46013;-68
2024/03/18 04:14:42;;;;;;;;;19.00;16.75;;;;;9.94;80.78;101165.72;146610;594;46008;-69
2024/03/18 04:18:04;;;;;;;;;;;;;;;;;;;;;
2024/03/18 04:21:12;;;;;;;;;18.75;15.25;;;;;9.99;80.42;101163.38;146611;622;46020;-72
2024/03/18 04:24:08;;;;;;;;;19.50;16.00;;;;;9.99;80.39;101160.81;146604;636;48012;-72
2024/03/18 04:27:17;;;;;;;;;21.50;19.00;;;;;9.92;79.62;101162.13;146612;623;47008;-71
2024/03/18 04:30:18;;;;;;;;;22.25;18.25;;;;;9.94;79.99;101159.66;146608;617;47022;-72
2024/03/18 04:33:14;;;;;;;;;13.00;13.00;;;;;9.90;80.29;101152.47;146605;587;46020;-71
2024/03/18 04:36:10;;;;;;;;;15.50;15.00;;;;;9.88;80.52;101159.28;146606;575;46910;-69
2024/03/18 04:39:06;;;;;;;;;17.25;14.25;;;;;9.78;81.08;101155.22;146611;634;46008;-72
2024/03/18 04:41:59;;;;;;;;;21.75;19.75;;;;;9.73;81.11;101156.63;146606;580;47017;-69
2024/03/18 04:44:54;;;;;;;;;17.25;16.50;;;;;9.69;80.86;101149.50;146611;596;46020;-71
2024/03/18 04:48:04;;;;;;;;;16.75;15.75;;;;;9.75;80.45;101149.88;146605;607;46909;-70
2024/03/18 04:51:02;;;;;;;;;14.75;14.25;;;;;9.83;80.53;101165.84;146605;588;47008;-69
2024/03/18 04:53:58;;;;;;;;;20.75;18.75;;;;;9.97;82.95;101171.88;146602;611;47909;-73
2024/03/18 04:56:55;;;;;;;;;17.50;16.00;;;;;10.13;83.03;101170.31;146611;615;46009;-73
2024/03/18 04:59:50;;;;;;;;;20.75;17.50;;;;;10.29;82.74;101177.34;146604;579;47016;-72
2024/03/18 05:03:04;;;;;;;;;17.75;16.50;;;;;10.45;82.37;101175.66;146605;588;46020;-72
2024/03/18 05:05:57;;;;;;;;;18.75;16.50;;;;;10.57;82.33;101174.66;146607;577;46031;-72
2024/03/18 05:08:56;;;;;;;;;20.25;16.25;;;;;10.70;81.87;101175.38;146612;598;46024;-71
2024/03/18 05:12:03;;;;;;;;;23.00;19.25;;;;;10.88;82.72;101171.25;146605;639;47010;-70
2024/03/18 05:15:01;;;;;;;;;22.50;20.00;;;;;11.50;83.85;101175.56;146613;582;46008;-71
2024/03/18 05:18:00;;;;;;;;;20.00;18.75;;;;;12.31;85.26;101166.00;146609;604;46016;-70
2024/03/18 05:20:59;;;;;;;;;21.00;20.00;;;;;13.23;85.69;101173.13;146608;603;47010;-71
2024/03/18 05:24:04;;;;;;;;;22.00;16.75;;;;;14.20;80.20;101174.12;146604;575;47012;-71
2024/03/18 05:27:08;;;;;;;;;17.75;16.50;;;;;15.15;73.12;101172.94;146609;738;47008;-70
2024/03/18 05:30:17;;;;;;;;;22.25;20.00;;;;;15.84;68.49;101167.75;146609;569;46010;-70
2024/03/18 05:33:17;;;;;;;;;22.25;20.25;;;;;16.48;65.01;101173.50;146603;604;46021;-70
2024/03/18 05:36:23;;;;;;;;;20.00;18.50;;;;;16.98;63.76;101171.72;146606;567;46016;-73
2024/03/18 05:39:19;;;;;;;;;16.00;14.75;;;;;17.39;62.73;101180.00;146601;619;48912;-73
2024/03/18 05:42:16;;;;;;;;;20.50;15.50;;;;;17.68;61.61;101170.38;146609;586;47010;-73
2024/03/18 05:45:18;;;;;;;;;17.75;16.00;;;;;17.89;60.05;101175.41;146607;617;47008;-75
2024/03/18 05:48:17;;;;;;;;;18.00;16.75;;;;;17.94;58.24;101176.41;146607;573;46018;-75
2024/03/18 05:51:17;;;;;;;;;17.75;15.25;;;;;17.80;56.38;101176.00;146614;577;46008;-75
2024/03/18 05:54:20;;;;;;;;;23.75;17.75;;;;;17.53;57.50;101181.28;146606;631;46028;-74
2024/03/18 05:57:27;;;;;;;;;19.50;15.75;;;;;17.16;58.22;101176.63;146611;590;47008;-76
2024/03/18 06:00:37;;;;;;;;;22.00;19.50;;;;;15.96;60.19;101026.09;146606;583;47010;-78
2024/03/18 06:03:37;;;;;;;;;17.25;13.75;;;;;16.62;60.33;101182.72;146602;583;47010;-79
2024/03/18 06:06:44;;;;;;;;;;;;;;;;;;;;;
2024/03/18 06:10:04;;;;;;;;;19.50;16.25;;;;;14.72;63.42;100907.53;146604;599;49008;-77
2024/03/18 06:12:58;;;;;;;;;22.00;18.00;;;;;16.27;63.21;101181.50;146608;632;46010;-77
2024/03/18 06:16:02;;;;;;;;;19.00;17.25;;;;;16.26;63.69;101171.84;146611;584;46008;-72
2024/03/18 06:19:17;;;;;;;;;23.25;19.00;;;;;16.28;64.00;101173.69;146603;757;47012;-72
2024/03/18 06:22:20;;;;;;;;;19.50;17.75;;;;;16.33;64.33;101173.88;146611;644;46020;-72
2024/03/18 06:28:36;;;;;;;;;18.50;17.25;;;;;16.50;63.82;101175.31;146609;596;47008;-74
2024/03/18 06:31:33;;;;;;;;;23.25;17.00;;;;;16.57;64.62;101182.56;146607;597;46016;-73
2024/03/18 06:34:44;;;;;;;;;14.75;14.25;;;;;16.71;64.34;101177.78;146604;587;47010;-70
2024/03/18 06:37:44;;;;;;;;;23.75;20.25;;;;;16.77;63.56;101183.25;146603;609;47012;-69
2024/03/18 06:40:44;;;;;;;;;23.50;20.25;;;;;16.81;64.39;101173.78;146611;673;47034;-73
2024/03/18 06:43:50;;;;;;;;;22.25;22.25;;;;;16.84;63.49;101176.50;146605;563;47016;-68
2024/03/18 06:46:46;;;;;;;;;21.75;20.75;;;;;16.84;63.31;101173.88;146610;608;47008;-75
2024/03/18 06:49:43;;;;;;;;;20.25;17.50;;;;;16.83;63.98;101169.50;146603;615;47010;-74
2024/03/18 06:52:51;;;;;;;;;22.25;18.50;;;;;16.87;63.80;101171.38;146608;586;47020;-73
2024/03/18 06:55:52;;;;;;;;;22.75;20.25;;;;;16.87;63.15;101173.97;146604;610;47010;-72
2024/03/18 06:58:48;;;;;;;;;22.50;17.50;;;;;16.77;63.63;101171.91;146611;669;46028;-72
2024/03/18 07:01:51;;;;;;;;;18.75;18.00;;;;;16.69;63.56;101170.72;146608;593;46010;-71
2024/03/18 07:04:52;;;;;;;;;17.75;16.75;;;;;16.68;64.01;101164.59;146611;576;47008;-71
2024/03/18 07:07:55;;;;;;;;;16.75;15.25;;;;;16.67;63.30;101161.94;146615;594;46912;-74
2024/03/18 07:11:01;;;;;;;;;18.50;15.75;;;;;16.63;63.45;101168.78;146616;595;47008;-73
2024/03/18 07:14:02;;;;;;;;;18.25;15.25;;;;;16.55;63.12;101167.66;146610;578;47012;-74
2024/03/18 07:17:16;;;;;;;;;;;;;;;;;;;;;
2024/03/18 07:20:17;;;;;;;;;20.25;16.75;;;;;16.64;64.10;101170.56;146613;608;46016;-73
2024/03/18 07:23:26;;;;;;;;;18.00;17.25;;;;;16.73;63.66;101170.88;146617;595;47011;-73
2024/03/18 07:26:24;;;;;;;;;17.50;15.75;;;;;16.80;64.09;101172.91;146610;569;46912;-74
2024/03/18 07:29:26;;;;;;;;;21.75;18.00;;;;;16.85;63.30;101159.94;146610;586;48008;-72
2024/03/18 07:32:30;;;;;;;;;16.00;15.00;;;;;16.83;61.91;101162.50;146614;569;47010;-71
2024/03/18 07:35:36;;;;;;;;;17.75;15.75;;;;;16.82;62.29;101159.84;146614;594;46020;-71
2024/03/18 07:38:35;;;;;;;;;21.50;17.00;;;;;16.89;62.74;101158.34;146613;617;47010;-72
2024/03/18 07:41:31;;;;;;;;;18.50;16.50;;;;;16.97;62.31;101167.31;146620;582;46022;-73
2024/03/18 07:44:30;;;;;;;;;22.50;17.25;;;;;17.08;62.01;101155.44;146612;565;46016;-71
2024/03/18 07:47:35;;;;;;;;;16.00;13.75;;;;;16.72;61.65;101073.94;146617;583;47020;-73
2024/03/18 07:50:30;;;;;;;;;15.00;12.50;;;;;17.30;60.20;101139.53;146614;587;46016;-70
2024/03/18 07:53:36;;;;;;;;;;;;;;;;;;;;;
2024/03/18 07:56:35;;;;;;;;;13.00;11.75;;;;;17.67;61.71;101137.12;146614;630;47010;-72
2024/03/18 07:59:41;;;;;;;;;15.75;15.00;;;;;17.81;59.33;101127.06;146617;602;46020;-72
2024/03/18 08:02:44;;;;;;;;;15.75;13.00;;;;;16.77;61.10;100926.62;146611;590;47010;-72
2024/03/18 08:05:41;;;;;;;;;11.75;10.25;;;;;18.15;57.06;101123.62;146605;601;46028;-72
2024/03/18 08:09:06;;;;;;;;;13.00;11.00;;;;;18.33;58.62;101117.97;146607;618;47010;-72
2024/03/18 08:12:04;;;;;;;;;14.75;12.75;;;;;18.51;55.44;101113.19;146613;614;46010;-71
2024/03/18 08:15:11;;;;;;;;;;;;;;;;;;;;;
2024/03/18 08:18:13;;;;;;;;;12.00;10.00;;;;;18.67;54.71;101109.22;146611;638;46020;-72
2024/03/18 08:21:12;;;;;;;;;13.00;12.25;;;;;18.78;52.86;101089.34;146605;689;47010;-72
2024/03/18 08:24:33;;;;;;;;;11.50;11.25;;;;;18.88;57.58;101088.75;146608;575;47020;-71
2024/03/18 08:27:41;;;;;;;;;16.00;11.50;;;;;19.05;53.74;101091.75;146606;626;46024;-69
2024/03/18 08:30:40;;;;;;;;;13.00;11.75;;;;;19.10;52.94;101097.13;146609;679;47020;-69
2024/03/18 08:33:44;;;;;;;;;19.00;16.00;;;;;19.08;54.75;101090.94;146605;594;46016;-70
2024/03/18 08:36:48;;;;;;;;;14.00;13.25;;;;;19.15;56.62;101092.81;146604;686;46020;-70
2024/03/18 08:39:42;;;;;;;;;10.25;8.50;;;;;19.29;54.32;101095.78;146607;658;47012;-70
2024/03/18 08:42:56;;;;;;;;;10.75;10.00;;;;;19.28;54.79;101088.72;146618;637;47008;-69
2024/03/18 08:46:10;;;;;;;;;13.00;10.25;;;;;17.78;55.96;100845.47;146603;652;47011;-69
2024/03/18 08:49:08;;;;;;;;;8.75;8.50;;;;;19.24;50.01;101090.41;146612;565;46008;-70
2024/03/18 08:52:15;;;;;;;;;14.00;14.00;;;;;19.21;54.09;101092.09;146609;703;46016;-68
2024/03/18 08:55:23;;;;;;;;;14.25;14.25;;;;;19.23;54.75;101086.00;146608;578;46021;-70
2024/03/18 08:58:26;;;;;;;;;12.33;10.67;;;;;19.31;53.88;101083.53;146607;601;46036;-73
2024/03/18 09:01:18;;;;;;;;;11.67;11.00;;;;;19.34;52.38;101081.84;146613;584;46021;-69
2024/03/18 09:04:27;;;;;;;;;10.33;9.33;;;;;19.39;52.48;101085.47;146630;603;45909;-70
2024/03/18 09:07:30;;;;;;;;;;;;;;;;;;;;;
2024/03/18 09:10:31;;;;;;;;;11.00;9.00;;;;;19.44;50.29;101082.03;146627;569;45909;-70
2024/03/18 09:13:45;;;;;;;;;11.00;9.75;;;;;19.59;51.31;101079.72;146628;565;46008;-68
2024/03/18 09:16:41;;;;;;;;;20.00;17.50;;;;;19.74;53.37;101076.56;146628;564;45016;-69
2024/03/18 09:19:57;;;;;;;;;18.50;16.75;;;;;19.75;51.60;101084.50;146634;601;45020;-70
2024/03/18 09:23:03;;;;;;;;;18.75;17.00;;;;;19.51;52.57;101071.69;146633;572;45016;-68
2024/03/18 09:26:13;;;;;;;;;20.00;18.50;;;;;19.39;51.87;101067.06;146627;654;46010;-68
2024/03/18 09:29:19;;;;;;;;;12.75;12.75;;;;;19.39;55.99;101064.44;146629;685;45910;-69
2024/03/18 09:32:25;;;;;;;;;19.00;17.25;;;;;19.38;48.71;101067.94;146630;662;45020;-69
2024/03/18 09:35:23;;;;;;;;;15.50;14.75;;;;;19.26;52.36;101069.41;146630;588;46012;-69
2024/03/18 09:38:24;;;;;;;;;19.00;19.00;;;;;19.33;52.92;101079.19;146628;611;45008;-70
2024/03/18 09:41:29;;;;;;;;;16.75;15.25;;;;;19.34;53.77;101073.97;146627;697;46010;-69
2024/03/18 09:44:57;;;;;;;;;15.75;15.00;;;;;19.40;52.53;101073.22;146629;578;45020;-69
2024/03/18 09:48:13;;;;;;;;;15.25;14.00;;;;;19.60;54.27;101073.63;146630;571;45907;-70
2024/03/18 09:51:10;;;;;;;;;4.00;2.33;;;;;19.74;47.66;101072.16;146633;674;46008;-69
2024/03/18 09:54:11;;;;;;;;;11.33;10.00;;;;;19.85;46.04;101067.13;146635;602;45010;-69
2024/03/18 09:57:31;;;;;;;;;15.00;15.00;;;;;18.30;53.77;100777.53;146634;571;45020;-70
2024/03/18 10:00:26;;;;;;;;;14.25;14.00;;;;;20.11;52.11;101072.88;146630;628;46012;-69
2024/03/18 10:03:23;;;;;;;;;15.25;14.25;;;;;20.25;52.38;101063.47;146620;616;46008;-68
2024/03/18 10:06:25;;;;;;;;;14.50;13.75;;;;;20.44;53.58;101069.06;146604;564;47910;-68
2024/03/18 10:09:32;;;;;;;;;;;;;;;;;;;;;
2024/03/18 10:12:34;;;;;;;;;17.00;14.50;;;;;20.65;48.23;101053.59;146602;578;47010;-69
2024/03/18 10:15:55;;;;;;;;;17.25;13.50;;;;;20.44;47.99;101046.22;146610;675;46021;-70
2024/03/18 10:18:51;;;;;;;;;16.25;15.00;;;;;20.35;49.99;101035.53;146606;600;47016;-70
2024/03/18 10:21:53;;;;;;;;;17.50;15.00;;;;;20.43;49.37;101038.28;146611;715;46020;-70
2024/03/18 10:24:57;;;;;;;;;14.50;11.75;;;;;20.34;49.64;101032.88;146602;611;47909;-69
2024/03/18 10:27:54;;;;;;;;;12.67;12.00;;;;;20.23;48.69;101027.44;146614;694;46020;-70
2024/03/18 10:30:48;;;;;;;;;17.00;12.33;;;;;20.11;48.09;101014.94;146606;669;46012;-69
2024/03/18 10:33:49;;;;;;;;;10.67;10.33;;;;;20.19;48.18;101023.87;146609;586;47008;-70
2024/03/18 10:36:56;;;;;;;;;8.50;8.50;;;;;20.21;49.15;101014.22;146601;567;47012;-69
2024/03/18 10:39:53;;;;;;;;;12.00;11.00;;;;;20.41;49.11;101000.53;146604;612;47008;-68
2024/03/18 10:42:50;;;;;;;;;11.25;10.25;;;;;20.69;49.37;100994.81;146605;638;46910;-70
2024/03/18 10:45:56;;;;;;;;;17.00;16.25;;;;;20.95;49.94;100986.37;146610;574;46021;-69
2024/03/18 10:48:56;;;;;;;;;15.00;14.50;;;;;21.14;47.13;100976.94;146608;640;46016;-69
2024/03/18 10:51:53;;;;;;;;;13.00;13.00;;;;;21.05;45.82;100975.06;146609;658;47021;-70
2024/03/18 10:54:54;;;;;;;;;11.67;10.67;;;;;20.75;45.60;100975.59;146605;576;47016;-69
2024/03/18 10:57:56;;;;;;;;;10.67;9.00;;;;;20.61;48.59;100970.09;146613;576;46008;-70
2024/03/18 11:00:54;;;;;;;;;14.00;12.00;;;;;20.62;48.11;100963.97;146610;703;46016;-70
2024/03/18 11:03:58;;;;;;;;;15.25;13.00;;;;;20.72;48.72;100946.56;146605;595;47008;-70
2024/03/18 11:06:57;;;;;;;;;12.67;11.67;;;;;20.85;48.66;100944.97;146606;684;47030;-69
2024/03/18 11:10:04;;;;;;;;;12.33;12.33;;;;;20.80;46.62;100930.81;146601;653;47008;-70
2024/03/18 11:13:36;;;;;;;;;11.25;10.50;;;;;19.27;47.83;100676.84;146606;865;47010;-69
2024/03/18 11:16:38;;;;;;;;;9.00;9.00;;;;;20.79;46.65;100915.88;146607;570;48008;-70
2024/03/18 11:19:39;;;;;;;;;10.75;10.00;;;;;20.84;45.36;100914.19;146612;643;47016;-69
2024/03/18 11:22:53;;;;;;;;;9.00;7.00;;;;;20.77;46.58;100906.19;146609;641;47008;-71
2024/03/18 11:26:09;;;;;;;;;;;;;;;;;;;;;
2024/03/18 11:29:17;;;;;;;;;10.00;9.75;;;;;20.83;47.44;100891.34;146610;626;46008;-71
2024/03/18 11:32:21;;;;;;;;;11.67;10.00;;;;;20.87;47.73;100890.50;146613;582;46010;-71
2024/03/18 11:35:52;;;;;;;;;7.33;7.33;;;;;19.37;44.81;100620.88;146613;602;46020;-70
2024/03/18 11:38:49;;;;;;;;;14.67;12.00;;;;;20.85;45.93;100881.72;146613;620;47016;-71
2024/03/18 11:41:52;;;;;;;;;8.67;7.00;;;;;21.02;45.35;100873.97;146608;658;46008;-70
2024/03/18 11:45:06;;;;;;;;;7.00;7.00;;;;;21.20;43.91;100871.53;146612;669;47010;-70
2024/03/18 11:48:19;;;;;;;;;8.33;8.33;;;;;21.30;46.99;100860.19;146620;609;47020;-70
2024/03/18 11:51:35;;;;;;;;;9.00;9.00;;;;;21.51;44.56;100859.56;146604;566;47012;-70
2024/03/18 11:54:57;;;;;;;;;7.00;7.00;;;;;21.64;41.08;100850.84;146611;620;47909;-70
2024/03/18 11:57:57;;;;;;;;;7.00;6.33;;;;;21.54;41.72;100843.75;146612;606;46010;-70
2024/03/18 12:01:00;;;;;;;;;7.67;7.00;;;;;21.40;40.65;100834.81;146621;634;47008;-71
2024/03/18 12:04:12;;;;;;;;;8.67;7.33;;;;;19.64;44.80;100559.91;146619;652;46016;-70
2024/03/18 12:07:07;;;;;;;;;10.33;8.00;;;;;21.15;41.49;100820.50;146619;579;46021;-71
2024/03/18 12:10:04;;;;;;;;;6.00;6.00;;;;;21.18;41.53;100821.44;146614;579;46909;-71
2024/03/18 12:13:13;;;;;;;;;10.00;8.67;;;;;21.05;41.47;100816.87;146609;603;47008;-70
2024/03/18 12:16:18;;;;;;;;;7.67;7.00;;;;;21.01;41.07;100814.22;146613;605;46018;-69
2024/03/18 12:19:26;;;;;;;;;10.67;7.33;;;;;19.64;44.46;100574.78;146622;615;46020;-71
2024/03/18 12:22:29;;;;;;;;;6.33;6.33;;;;;20.86;41.01;100800.00;146616;585;46010;-71
2024/03/18 13:15:15;;;;;;;;;8.00;6.00;;;;;19.05;39.29;100754.47;146638;570;46010;-70
2024/03/18 13:18:13;;;;;;;;;4.50;4.50;;;;;19.12;38.58;100751.06;146619;579;46016;-67
2024/03/18 13:21:27;;;;;;;;;5.33;5.00;;;;;19.12;39.01;100745.81;146627;673;47036;-68
2024/03/18 13:24:32;;;;;;;;;10.00;8.00;;;;;19.13;39.04;100756.38;146617;626;48016;-68
2024/03/18 13:27:27;;;;;;;;;7.00;5.67;;;;;19.25;40.94;100752.16;146623;596;47020;-67
2024/03/18 13:30:37;;;;;;;;;5.00;5.00;;;;;19.43;41.63;100738.41;146622;616;46016;-68
2024/03/18 13:33:36;;;;;;;;;6.00;4.75;;;;;19.64;40.37;100735.22;146623;593;47008;-67
2024/03/18 13:36:35;;;;;;;;;5.75;4.00;;;;;19.81;40.34;100739.91;146625;668;46914;-67
2024/03/18 13:39:39;;;;;;;;;3.00;3.00;;;;;19.82;36.67;100733.78;146628;675;46008;-73
2024/03/18 13:42:32;;;;;;;;;4.33;4.33;;;;;19.66;37.04;100737.06;146629;663;46010;-72
2024/03/18 13:45:26;;;;;;;;;6.67;5.00;;;;;18.81;38.81;100628.81;146624;588;47010;-70
2024/03/18 13:48:28;;;;;;;;;7.67;6.00;;;;;19.25;40.78;100745.19;146624;615;47011;-71
2024/03/18 13:51:27;;;;;;;;;4.00;4.00;;;;;19.09;42.25;100732.63;146627;648;47008;-70
2024/03/18 13:54:35;;;;;;;;;6.00;6.00;;;;;19.02;46.50;100736.88;146621;625;47012;-71
2024/03/18 13:57:31;;;;;;;;;6.00;5.00;;;;;19.00;46.26;100730.72;146626;573;46020;-70
2024/03/18 14:00:30;;;;;;;;;6.00;6.00;;;;;18.97;45.71;100727.16;146624;720;46016;-72
2024/03/18 14:03:23;;;;;;;;;6.33;5.67;;;;;18.98;47.85;100728.94;146621;621;47021;-70
2024/03/18 14:06:20;;;;;;;;;4.67;4.67;;;;;19.08;46.87;100723.84;146619;651;48012;-69
2024/03/18 14:09:22;;;;;;;;;7.33;6.67;;;;;19.25;45.39;100733.75;146630;575;47008;-71
2024/03/18 14:12:31;;;;;;;;;5.00;5.00;;;;;19.39;44.73;100729.59;146627;592;46910;-70
2024/03/18 14:15:32;;;;;;;;;7.33;4.67;;;;;19.46;44.90;100720.06;146636;570;46912;-71
2024/03/18 14:18:36;;;;;;;;;4.00;3.67;;;;;19.49;43.39;100709.59;146641;633;45023;-72
2024/03/18 14:21:28;;;;;;;;;6.00;6.00;;;;;19.45;42.79;100713.91;146643;618;45028;-70
2024/03/18 14:24:28;;;;;;;;;4.00;4.00;;;;;19.34;43.08;100708.47;146633;593;46017;-70
2024/03/18 14:27:26;;;;;;;;;5.67;5.00;;;;;19.23;43.07;100710.09;146642;590;45026;-70
2024/03/18 14:30:22;;;;;;;;;4.00;4.00;;;;;19.08;43.25;100715.09;146640;579;45016;-71
2024/03/18 14:33:23;;;;;;;;;2.50;1.50;;;;;18.93;44.03;100702.56;146642;579;45021;-71
2024/03/18 14:36:22;;;;;;;;;5.33;5.00;;;;;18.85;44.27;100705.09;146638;576;46041;-70
2024/03/18 14:39:24;;;;;;;;;6.00;4.00;;;;;18.78;45.68;100702.31;146642;566;45008;-71
2024/03/18 14:42:31;;;;;;;;;5.67;4.67;;;;;17.85;46.27;100551.84;146636;702;45016;-71
2024/03/18 14:45:31;;;;;;;;;4.67;4.67;;;;;18.79;46.42;100709.34;146642;620;45020;-71
2024/03/18 14:48:28;;;;;;;;;4.00;4.00;;;;;18.79;44.58;100704.09;146640;623;45016;-71
2024/03/18 14:51:43;;;;;;;;;5.67;4.67;;;;;18.79;46.25;100698.84;146643;573;46008;-70
2024/03/18 14:54:53;;;;;;;;;5.33;4.33;;;;;18.77;44.85;100698.81;146637;575;45019;-72
2024/03/18 14:57:48;;;;;;;;;6.00;6.00;;;;;18.73;43.95;100694.37;146641;681;46008;-70
2024/03/18 15:00:47;;;;;;;;;5.33;4.00;;;;;18.72;42.55;100695.16;146640;599;45017;-71